sensor_id;sensor_type;location;lat;lon;timestamp;pressure;altitude;pressure_sealevel;temperature;humidity
64610;BME280;51019;46.090;6.350;2022-11-20T00:01:05;96329.34;;;0.32;100.00
64610;BME280;51019;46.090;6.350;2022-11-20T00:03:33;96315.31;;;0.22;100.00
64610;BME280;51019;46.090;6.350;2022-11-20T00:06:02;96323.28;;;0.18;100.00
64610;BME280;51019;46.090;6.350;2022-11-20T00:08:29;96336.84;;;0.21;100.00
64610;BME280;51019;46.090;6.350;2022-11-20T00:10:57;96252.75;;;-0.27;100.00
64610;BME280;51019;46.090;6.350;2022-11-20T00:13:26;96338.59;;;0.05;100.00
64610;BME280;51019;46.090;6.350;2022-11-20T00:15:57;96315.97;;;-0.06;100.00
64610;BME280;51019;46.090;6.350;2022-11-20T00:18:26;96343.06;;;0.02;100.00
64610;BME280;51019;46.090;6.350;2022-11-20T00:21:00;96349.56;;;0.09;100.00
64610;BME280;51019;46.090;6.350;2022-11-20T00:23:30;96348.34;;;0.00;100.00
64610;BME280;51019;46.090;6.350;2022-11-20T00:26:01;96356.72;;;0.04;100.00
64610;BME280;51019;46.090;6.350;2022-11-20T00:28:31;96350.16;;;-0.02;100.00
64610;BME280;51019;46.090;6.350;2022-11-20T00:31:02;96346.91;;;-0.06;100.00
64610;BME280;51019;46.090;6.350;2022-11-20T00:33:30;96285.22;;;-0.40;100.00
64610;BME280;51019;46.090;6.350;2022-11-20T00:36:01;96333.91;;;-0.20;100.00
64610;BME280;51019;46.090;6.350;2022-11-20T00:38:30;96360.47;;;-0.02;100.00
64610;BME280;51019;46.090;6.350;2022-11-20T00:41:01;96346.31;;;-0.11;100.00
64610;BME280;51019;46.090;6.350;2022-11-20T00:43:32;96368.19;;;-0.02;100.00
64610;BME280;51019;46.090;6.350;2022-11-20T00:46:00;96368.34;;;-0.05;100.00
64610;BME280;51019;46.090;6.350;2022-11-20T00:48:32;96366.91;;;-0.11;100.00
64610;BME280;51019;46.090;6.350;2022-11-20T00:51:00;96370.81;;;-0.19;100.00
64610;BME280;51019;46.090;6.350;2022-11-20T00:53:27;96376.22;;;-0.08;100.00
64610;BME280;51019;46.090;6.350;2022-11-20T00:55:55;96387.97;;;-0.03;100.00
64610;BME280;51019;46.090;6.350;2022-11-20T00:58:24;96390.34;;;0.00;100.00
64610;BME280;51019;46.090;6.350;2022-11-20T01:00:59;96393.69;;;-0.13;100.00
64610;BME280;51019;46.090;6.350;2022-11-20T01:03:30;96393.03;;;-0.01;100.00
64610;BME280;51019;46.090;6.350;2022-11-20T01:06:00;96369.97;;;-0.20;100.00
64610;BME280;51019;46.090;6.350;2022-11-20T01:08:29;96385.19;;;0.00;100.00
64610;BME280;51019;46.090;6.350;2022-11-20T01:10:59;96393.44;;;-0.09;100.00
64610;BME280;51019;46.090;6.350;2022-11-20T01:13:28;96395.25;;;-0.26;100.00
64610;BME280;51019;46.090;6.350;2022-11-20T01:16:08;96399.97;;;-0.34;100.00
64610;BME280;51019;46.090;6.350;2022-11-20T01:18:42;96372.50;;;-0.51;100.00
64610;BME280;51019;46.090;6.350;2022-11-20T01:21:14;96407.31;;;-0.44;100.00
64610;BME280;51019;46.090;6.350;2022-11-20T01:23:43;96392.19;;;-0.50;100.00
64610;BME280;51019;46.090;6.350;2022-11-20T01:26:12;96417.78;;;-0.47;100.00
64610;BME280;51019;46.090;6.350;2022-11-20T01:28:41;96412.34;;;-0.58;100.00
64610;BME280;51019;46.090;6.350;2022-11-20T01:31:15;96418.47;;;-0.61;100.00
64610;BME280;51019;46.090;6.350;2022-11-20T01:33:44;96400.63;;;-0.64;100.00
64610;BME280;51019;46.090;6.350;2022-11-20T01:36:12;96404.63;;;-0.76;100.00
64610;BME280;51019;46.090;6.350;2022-11-20T01:38:42;96424.16;;;-0.71;100.00
64610;BME280;51019;46.090;6.350;2022-11-20T01:41:11;96365.09;;;-1.07;100.00
64610;BME280;51019;46.090;6.350;2022-11-20T01:44:00;96357.50;;;-0.93;100.00
64610;BME280;51019;46.090;6.350;2022-11-20T01:46:29;96414.75;;;-0.55;100.00
64610;BME280;51019;46.090;6.350;2022-11-20T01:49:00;96409.50;;;-0.69;100.00
64610;BME280;51019;46.090;6.350;2022-11-20T01:51:33;96415.75;;;-0.58;100.00
64610;BME280;51019;46.090;6.350;2022-11-20T01:54:05;96422.19;;;-0.66;100.00
64610;BME280;51019;46.090;6.350;2022-11-20T01:56:38;96411.75;;;-0.63;100.00
64610;BME280;51019;46.090;6.350;2022-11-20T01:59:12;96416.19;;;-0.67;100.00
64610;BME280;51019;46.090;6.350;2022-11-20T02:01:46;96415.75;;;-0.58;100.00
64610;BME280;51019;46.090;6.350;2022-11-20T02:04:14;96374.84;;;-0.80;100.00
64610;BME280;51019;46.090;6.350;2022-11-20T02:06:45;96391.91;;;-0.79;100.00
64610;BME280;51019;46.090;6.350;2022-11-20T02:09:15;96426.50;;;-0.67;100.00
64610;BME280;51019;46.090;6.350;2022-11-20T02:11:42;96430.00;;;-0.68;100.00
64610;BME280;51019;46.090;6.350;2022-11-20T02:14:10;96409.56;;;-0.71;100.00
64610;BME280;51019;46.090;6.350;2022-11-20T02:16:38;96424.94;;;-0.69;100.00
64610;BME280;51019;46.090;6.350;2022-11-20T02:19:17;96414.41;;;-0.82;100.00
64610;BME280;51019;46.090;6.350;2022-11-20T02:21:54;96411.44;;;-0.57;100.00
64610;BME280;51019;46.090;6.350;2022-11-20T02:24:25;96431.34;;;-0.61;100.00
64610;BME280;51019;46.090;6.350;2022-11-20T02:26:54;96434.75;;;-0.78;100.00
64610;BME280;51019;46.090;6.350;2022-11-20T02:29:26;96421.31;;;-0.83;100.00
64610;BME280;51019;46.090;6.350;2022-11-20T02:31:55;96414.16;;;-0.78;100.00
64610;BME280;51019;46.090;6.350;2022-11-20T02:34:25;96369.75;;;-0.98;100.00
64610;BME280;51019;46.090;6.350;2022-11-20T02:36:54;96431.72;;;-0.51;100.00
64610;BME280;51019;46.090;6.350;2022-11-20T02:39:25;96423.78;;;-0.64;100.00
64610;BME280;51019;46.090;6.350;2022-11-20T02:41:55;96409.56;;;-0.71;100.00
64610;BME280;51019;46.090;6.350;2022-11-20T02:44:26;96422.94;;;-0.47;100.00
64610;BME280;51019;46.090;6.350;2022-11-20T02:46:57;96435.19;;;-0.35;100.00
64610;BME280;51019;46.090;6.350;2022-11-20T02:49:26;96433.13;;;-0.28;100.00
64610;BME280;51019;46.090;6.350;2022-11-20T02:51:55;96420.56;;;-0.34;100.00
64610;BME280;51019;46.090;6.350;2022-11-20T02:54:25;96420.78;;;-0.39;100.00
64610;BME280;51019;46.090;6.350;2022-11-20T02:56:52;96407.44;;;-0.30;100.00
64610;BME280;51019;46.090;6.350;2022-11-20T02:59:21;96426.63;;;-0.03;100.00
64610;BME280;51019;46.090;6.350;2022-11-20T03:01:49;96405.47;;;-0.25;100.00
64610;BME280;51019;46.090;6.350;2022-11-20T03:04:17;96379.16;;;-0.47;100.00
64610;BME280;51019;46.090;6.350;2022-11-20T03:06:44;96411.53;;;-0.26;100.00
64610;BME280;51019;46.090;6.350;2022-11-20T03:09:12;96400.94;;;-0.04;100.00
64610;BME280;51019;46.090;6.350;2022-11-20T03:11:42;96412.44;;;0.22;100.00
64610;BME280;51019;46.090;6.350;2022-11-20T03:14:12;96424.38;;;0.07;100.00
64610;BME280;51019;46.090;6.350;2022-11-20T03:16:39;96342.38;;;-0.49;100.00
64610;BME280;51019;46.090;6.350;2022-11-20T03:19:08;96427.88;;;0.06;100.00
64610;BME280;51019;46.090;6.350;2022-11-20T03:21:37;96405.34;;;0.10;100.00
64610;BME280;51019;46.090;6.350;2022-11-20T03:24:05;96433.38;;;0.47;100.00
64610;BME280;51019;46.090;6.350;2022-11-20T03:26:33;96433.38;;;0.47;100.00
64610;BME280;51019;46.090;6.350;2022-11-20T03:29:04;96437.81;;;0.45;100.00
64610;BME280;51019;46.090;6.350;2022-11-20T03:31:33;96416.16;;;0.32;100.00
64610;BME280;51019;46.090;6.350;2022-11-20T03:34:02;96373.00;;;-0.12;100.00
64610;BME280;51019;46.090;6.350;2022-11-20T03:36:31;96441.59;;;0.38;100.00
64610;BME280;51019;46.090;6.350;2022-11-20T03:39:00;96442.94;;;0.29;100.00
64610;BME280;51019;46.090;6.350;2022-11-20T03:41:29;96434.38;;;0.29;100.00
64610;BME280;51019;46.090;6.350;2022-11-20T03:43:59;96452.00;;;0.36;100.00
64610;BME280;51019;46.090;6.350;2022-11-20T03:46:31;96445.78;;;0.41;100.00
64610;BME280;51019;46.090;6.350;2022-11-20T03:48:59;96460.16;;;0.29;100.00
64610;BME280;51019;46.090;6.350;2022-11-20T03:51:28;96457.34;;;0.33;100.00
64610;BME280;51019;46.090;6.350;2022-11-20T03:53:58;96462.66;;;0.46;100.00
64610;BME280;51019;46.090;6.350;2022-11-20T03:56:27;96460.25;;;0.43;100.00
64610;BME280;51019;46.090;6.350;2022-11-20T03:58:55;96462.06;;;0.41;100.00
64610;BME280;51019;46.090;6.350;2022-11-20T04:01:24;96455.59;;;0.65;100.00
64610;BME280;51019;46.090;6.350;2022-11-20T04:03:55;96457.84;;;0.40;100.00
64610;BME280;51019;46.090;6.350;2022-11-20T04:06:25;96430.63;;;0.34;100.00
64610;BME280;51019;46.090;6.350;2022-11-20T04:08:54;96450.25;;;0.68;100.00
64610;BME280;51019;46.090;6.350;2022-11-20T04:11:23;96465.47;;;0.89;100.00
64610;BME280;51019;46.090;6.350;2022-11-20T04:13:52;96443.19;;;0.72;100.00
64610;BME280;51019;46.090;6.350;2022-11-20T04:16:22;96465.84;;;0.67;100.00
64610;BME280;51019;46.090;6.350;2022-11-20T04:18:53;96477.94;;;0.81;100.00
64610;BME280;51019;46.090;6.350;2022-11-20T04:21:25;96482.63;;;0.74;100.00
64610;BME280;51019;46.090;6.350;2022-11-20T04:23:53;96462.75;;;0.45;100.00
64610;BME280;51019;46.090;6.350;2022-11-20T04:26:23;96477.13;;;0.49;100.00
64610;BME280;51019;46.090;6.350;2022-11-20T04:28:51;96433.97;;;0.21;100.00
64610;BME280;51019;46.090;6.350;2022-11-20T04:31:20;96454.91;;;0.46;100.00
64610;BME280;51019;46.090;6.350;2022-11-20T04:33:49;96394.44;;;0.05;100.00
64610;BME280;51019;46.090;6.350;2022-11-20T04:36:21;96465.22;;;0.62;100.00
64610;BME280;51019;46.090;6.350;2022-11-20T04:38:51;96452.81;;;0.84;100.00
64610;BME280;51019;46.090;6.350;2022-11-20T04:41:21;96300.44;;;-0.20;100.00
64610;BME280;51019;46.090;6.350;2022-11-20T04:43:49;96474.22;;;0.70;100.00
64610;BME280;51019;46.090;6.350;2022-11-20T04:46:18;96475.72;;;0.59;100.00
64610;BME280;51019;46.090;6.350;2022-11-20T04:48:47;96463.81;;;0.72;100.00
64610;BME280;51019;46.090;6.350;2022-11-20T04:51:15;96474.81;;;0.76;100.00
64610;BME280;51019;46.090;6.350;2022-11-20T04:53:46;96484.69;;;0.83;100.00
64610;BME280;51019;46.090;6.350;2022-11-20T04:56:14;96478.69;;;0.83;100.00
64610;BME280;51019;46.090;6.350;2022-11-20T04:58:43;96424.22;;;0.57;100.00
64610;BME280;51019;46.090;6.350;2022-11-20T05:01:13;96456.31;;;0.83;100.00
64610;BME280;51019;46.090;6.350;2022-11-20T05:03:42;96466.78;;;0.96;100.00
64610;BME280;51019;46.090;6.350;2022-11-20T05:06:15;96475.69;;;1.06;100.00
64610;BME280;51019;46.090;6.350;2022-11-20T05:08:45;96474.38;;;1.29;100.00
64610;BME280;51019;46.090;6.350;2022-11-20T05:11:17;96441.91;;;0.95;100.00
64610;BME280;51019;46.090;6.350;2022-11-20T05:13:44;96477.19;;;1.24;100.00
64610;BME280;51019;46.090;6.350;2022-11-20T05:16:15;96433.75;;;1.17;100.00
64610;BME280;51019;46.090;6.350;2022-11-20T05:18:43;96479.00;;;1.38;100.00
64610;BME280;51019;46.090;6.350;2022-11-20T05:21:11;96473.41;;;1.45;100.00
64610;BME280;51019;46.090;6.350;2022-11-20T05:23:39;96460.78;;;1.25;100.00
64610;BME280;51019;46.090;6.350;2022-11-20T05:26:13;96476.50;;;1.36;100.00
64610;BME280;51019;46.090;6.350;2022-11-20T05:28:41;96479.84;;;1.38;100.00
64610;BME280;51019;46.090;6.350;2022-11-20T05:31:11;96477.97;;;1.26;100.00
64610;BME280;51019;46.090;6.350;2022-11-20T05:33:40;96457.44;;;1.09;100.00
64610;BME280;51019;46.090;6.350;2022-11-20T05:36:09;96467.00;;;1.23;100.00
64610;BME280;51019;46.090;6.350;2022-11-20T05:38:40;96428.81;;;0.98;100.00
64610;BME280;51019;46.090;6.350;2022-11-20T05:41:11;96458.22;;;1.25;100.00
64610;BME280;51019;46.090;6.350;2022-11-20T05:43:41;96473.22;;;1.49;100.00
64610;BME280;51019;46.090;6.350;2022-11-20T05:46:12;96473.00;;;1.67;100.00
64610;BME280;51019;46.090;6.350;2022-11-20T05:48:41;96479.13;;;1.51;100.00
64610;BME280;51019;46.090;6.350;2022-11-20T05:51:11;96478.31;;;1.50;100.00
64610;BME280;51019;46.090;6.350;2022-11-20T05:53:39;96432.88;;;1.02;100.00
64610;BME280;51019;46.090;6.350;2022-11-20T05:56:13;96472.41;;;1.18;100.00
64610;BME280;51019;46.090;6.350;2022-11-20T05:58:41;96477.47;;;1.35;100.00
64610;BME280;51019;46.090;6.350;2022-11-20T06:01:11;96440.59;;;1.18;100.00
64610;BME280;51019;46.090;6.350;2022-11-20T06:03:41;96464.94;;;1.43;100.00
64610;BME280;51019;46.090;6.350;2022-11-20T06:06:11;96394.69;;;0.93;100.00
64610;BME280;51019;46.090;6.350;2022-11-20T06:08:39;96476.25;;;1.41;100.00
64610;BME280;51019;46.090;6.350;2022-11-20T06:11:09;96450.44;;;1.41;100.00
64610;BME280;51019;46.090;6.350;2022-11-20T06:13:39;96450.81;;;1.35;100.00
64610;BME280;51019;46.090;6.350;2022-11-20T06:16:09;96475.03;;;1.32;100.00
64610;BME280;51019;46.090;6.350;2022-11-20T06:18:37;96475.22;;;1.29;100.00
64610;BME280;51019;46.090;6.350;2022-11-20T06:21:06;96474.03;;;1.35;100.00
64610;BME280;51019;46.090;6.350;2022-11-20T06:23:35;96468.06;;;1.49;100.00
64610;BME280;51019;46.090;6.350;2022-11-20T06:26:03;96451.72;;;1.34;100.00
64610;BME280;51019;46.090;6.350;2022-11-20T06:28:31;96378.38;;;0.92;100.00
64610;BME280;51019;46.090;6.350;2022-11-20T06:31:03;96441.06;;;1.24;100.00
64610;BME280;51019;46.090;6.350;2022-11-20T06:33:31;96461.50;;;1.43;100.00
64610;BME280;51019;46.090;6.350;2022-11-20T06:35:59;96469.19;;;1.44;100.00
64610;BME280;51019;46.090;6.350;2022-11-20T06:38:27;96466.53;;;1.30;100.00
64610;BME280;51019;46.090;6.350;2022-11-20T06:40:57;96430.63;;;1.12;100.00
64610;BME280;51019;46.090;6.350;2022-11-20T06:43:28;96464.22;;;1.26;100.00
64610;BME280;51019;46.090;6.350;2022-11-20T06:45:57;96440.13;;;1.11;100.00
64610;BME280;51019;46.090;6.350;2022-11-20T06:48:27;96459.13;;;1.24;100.00
64610;BME280;51019;46.090;6.350;2022-11-20T06:50:55;96417.28;;;1.19;100.00
64610;BME280;51019;46.090;6.350;2022-11-20T06:53:24;96468.75;;;1.66;100.00
64610;BME280;51019;46.090;6.350;2022-11-20T06:55:52;96463.38;;;1.69;100.00
64610;BME280;51019;46.090;6.350;2022-11-20T06:58:19;96449.06;;;1.50;100.00
64610;BME280;51019;46.090;6.350;2022-11-20T07:00:49;96453.63;;;1.30;100.00
64610;BME280;51019;46.090;6.350;2022-11-20T07:03:16;96468.44;;;1.13;100.00
64610;BME280;51019;46.090;6.350;2022-11-20T07:05:46;96458.28;;;0.94;100.00
64610;BME280;51019;46.090;6.350;2022-11-20T07:08:13;96476.88;;;0.85;100.00
64610;BME280;51019;46.090;6.350;2022-11-20T07:10:41;96476.63;;;0.89;100.00
64610;BME280;51019;46.090;6.350;2022-11-20T07:13:08;96462.47;;;0.81;100.00
64610;BME280;51019;46.090;6.350;2022-11-20T07:15:35;96446.28;;;0.63;100.00
64610;BME280;51019;46.090;6.350;2022-11-20T07:18:03;96476.31;;;0.64;100.00
64610;BME280;51019;46.090;6.350;2022-11-20T07:20:30;96482.69;;;0.72;100.00
64610;BME280;51019;46.090;6.350;2022-11-20T07:22:59;96436.19;;;0.27;100.00
64610;BME280;51019;46.090;6.350;2022-11-20T07:25:27;96493.53;;;0.63;100.00
64610;BME280;51019;46.090;6.350;2022-11-20T07:27:57;96498.34;;;0.69;100.00
64610;BME280;51019;46.090;6.350;2022-11-20T07:30:24;96483.47;;;0.43;100.00
64610;BME280;51019;46.090;6.350;2022-11-20T07:32:53;96499.56;;;0.47;100.00
64610;BME280;51019;46.090;6.350;2022-11-20T07:35:22;96508.31;;;0.60;100.00
64610;BME280;51019;46.090;6.350;2022-11-20T07:37:50;96503.91;;;0.46;100.00
64610;BME280;51019;46.090;6.350;2022-11-20T07:40:19;96396.91;;;-0.25;100.00
64610;BME280;51019;46.090;6.350;2022-11-20T07:42:48;96449.31;;;0.07;100.00
64610;BME280;51019;46.090;6.350;2022-11-20T07:45:16;96499.56;;;0.47;100.00
64610;BME280;51019;46.090;6.350;2022-11-20T07:47:44;96500.25;;;0.50;100.00
64610;BME280;51019;46.090;6.350;2022-11-20T07:50:16;96478.63;;;0.37;100.00
64610;BME280;51019;46.090;6.350;2022-11-20T07:52:44;96503.50;;;0.54;100.00
64610;BME280;51019;46.090;6.350;2022-11-20T07:55:14;96494.75;;;0.41;100.00
64610;BME280;51019;46.090;6.350;2022-11-20T07:57:43;96494.94;;;0.53;100.00
64610;BME280;51019;46.090;6.350;2022-11-20T08:00:11;96479.53;;;0.52;100.00
64610;BME280;51019;46.090;6.350;2022-11-20T08:02:39;96436.53;;;0.21;100.00
64610;BME280;51019;46.090;6.350;2022-11-20T08:05:08;96502.69;;;0.85;100.00
64610;BME280;51019;46.090;6.350;2022-11-20T08:07:37;96461.06;;;0.75;100.00
64610;BME280;51019;46.090;6.350;2022-11-20T08:10:05;96508.53;;;1.34;100.00
64610;BME280;51019;46.090;6.350;2022-11-20T08:12:35;96491.28;;;1.34;100.00
64610;BME280;51019;46.090;6.350;2022-11-20T08:15:21;96506.13;;;1.75;100.00
64610;BME280;51019;46.090;6.350;2022-11-20T08:18:02;96515.41;;;2.22;100.00
64610;BME280;51019;46.090;6.350;2022-11-20T08:20:30;96506.53;;;2.54;100.00
64610;BME280;51019;46.090;6.350;2022-11-20T08:22:59;96466.34;;;2.89;100.00
64610;BME280;51019;46.090;6.350;2022-11-20T08:25:27;96512.84;;;3.45;100.00
64610;BME280;51019;46.090;6.350;2022-11-20T08:27:57;96524.69;;;4.39;100.00
64610;BME280;51019;46.090;6.350;2022-11-20T08:30:26;96523.56;;;5.16;100.00
64610;BME280;51019;46.090;6.350;2022-11-20T08:32:54;96505.75;;;5.46;100.00
64610;BME280;51019;46.090;6.350;2022-11-20T08:35:22;96522.44;;;6.14;100.00
64610;BME280;51019;46.090;6.350;2022-11-20T08:37:49;96468.03;;;6.33;100.00
64610;BME280;51019;46.090;6.350;2022-11-20T08:40:17;96517.03;;;6.39;100.00
64610;BME280;51019;46.090;6.350;2022-11-20T08:42:47;96507.06;;;6.78;100.00
64610;BME280;51019;46.090;6.350;2022-11-20T08:45:16;96520.91;;;7.01;100.00
64610;BME280;51019;46.090;6.350;2022-11-20T08:47:46;96509.25;;;7.59;98.99
64610;BME280;51019;46.090;6.350;2022-11-20T08:50:15;96510.16;;;7.37;97.55
64610;BME280;51019;46.090;6.350;2022-11-20T08:52:45;96520.81;;;6.46;100.00
64610;BME280;51019;46.090;6.350;2022-11-20T08:55:12;96511.03;;;7.26;100.00
64610;BME280;51019;46.090;6.350;2022-11-20T08:57:42;96502.53;;;7.45;96.50
64610;BME280;51019;46.090;6.350;2022-11-20T09:00:11;96506.06;;;7.87;96.43
64610;BME280;51019;46.090;6.350;2022-11-20T09:02:38;96505.81;;;8.32;93.89
64610;BME280;51019;46.090;6.350;2022-11-20T09:05:08;96511.22;;;8.70;91.78
64610;BME280;51019;46.090;6.350;2022-11-20T09:07:35;96512.81;;;7.90;91.81
64610;BME280;51019;46.090;6.350;2022-11-20T09:10:03;96517.00;;;8.74;87.31
64610;BME280;51019;46.090;6.350;2022-11-20T09:12:30;96438.97;;;8.50;84.53
64610;BME280;51019;46.090;6.350;2022-11-20T09:14:58;96506.84;;;9.21;84.51
64610;BME280;51019;46.090;6.350;2022-11-20T09:17:25;96500.72;;;8.91;80.25
64610;BME280;51019;46.090;6.350;2022-11-20T09:19:53;96508.25;;;9.54;78.73
64610;BME280;51019;46.090;6.350;2022-11-20T09:22:22;96520.88;;;9.29;75.55
64610;BME280;51019;46.090;6.350;2022-11-20T09:24:49;96485.53;;;9.44;74.18
64610;BME280;51019;46.090;6.350;2022-11-20T09:27:18;96498.50;;;9.46;72.68
64610;BME280;51019;46.090;6.350;2022-11-20T09:29:47;96517.63;;;9.85;72.77
64610;BME280;51019;46.090;6.350;2022-11-20T09:32:14;96516.53;;;9.59;73.26
64610;BME280;51019;46.090;6.350;2022-11-20T09:34:42;96510.56;;;9.28;73.78
64610;BME280;51019;46.090;6.350;2022-11-20T09:37:09;96501.78;;;9.96;73.67
64610;BME280;51019;46.090;6.350;2022-11-20T09:39:38;96511.63;;;10.60;68.50
64610;BME280;51019;46.090;6.350;2022-11-20T09:42:22;96522.69;;;10.44;67.56
64610;BME280;51019;46.090;6.350;2022-11-20T09:45:09;96525.44;;;10.89;64.30
64610;BME280;51019;46.090;6.350;2022-11-20T09:47:50;96524.72;;;10.50;62.93
64610;BME280;51019;46.090;6.350;2022-11-20T09:50:27;96520.91;;;10.16;66.34
64610;BME280;51019;46.090;6.350;2022-11-20T09:53:13;96527.28;;;11.34;60.62
64610;BME280;51019;46.090;6.350;2022-11-20T09:55:45;96531.00;;;11.32;58.51
64610;BME280;51019;46.090;6.350;2022-11-20T09:58:16;96526.22;;;11.27;58.68
64610;BME280;51019;46.090;6.350;2022-11-20T10:00:50;96533.91;;;11.11;59.19
64610;BME280;51019;46.090;6.350;2022-11-20T10:03:29;96507.81;;;11.09;58.83
64610;BME280;51019;46.090;6.350;2022-11-20T10:06:05;96501.03;;;11.79;56.81
64610;BME280;51019;46.090;6.350;2022-11-20T10:08:40;96513.75;;;12.10;57.21
64610;BME280;51019;46.090;6.350;2022-11-20T10:11:16;96521.38;;;12.39;57.11
64610;BME280;51019;46.090;6.350;2022-11-20T10:13:53;96515.81;;;11.80;56.23
64610;BME280;51019;46.090;6.350;2022-11-20T10:16:30;96491.53;;;11.69;57.54
64610;BME280;51019;46.090;6.350;2022-11-20T10:19:09;96508.25;;;11.68;55.80
64610;BME280;51019;46.090;6.350;2022-11-20T10:21:56;96514.34;;;12.47;54.00
64610;BME280;51019;46.090;6.350;2022-11-20T10:24:41;96441.16;;;12.09;53.53
64610;BME280;51019;46.090;6.350;2022-11-20T10:27:23;96511.47;;;12.92;52.13
64610;BME280;51019;46.090;6.350;2022-11-20T10:29:54;96517.66;;;13.51;51.15
64610;BME280;51019;46.090;6.350;2022-11-20T10:32:31;96505.53;;;13.16;51.25
64610;BME280;51019;46.090;6.350;2022-11-20T10:35:05;96513.38;;;13.50;50.51
64610;BME280;51019;46.090;6.350;2022-11-20T10:37:38;96436.34;;;13.56;49.16
64610;BME280;51019;46.090;6.350;2022-11-20T10:40:14;96519.53;;;15.19;47.03
64610;BME280;51019;46.090;6.350;2022-11-20T10:42:49;96492.44;;;15.25;46.54
64610;BME280;51019;46.090;6.350;2022-11-20T10:45:31;96513.84;;;15.00;46.28
64610;BME280;51019;46.090;6.350;2022-11-20T10:48:14;96510.63;;;15.51;45.19
64610;BME280;51019;46.090;6.350;2022-11-20T10:53:51;96501.50;;;15.62;44.15
64610;BME280;51019;46.090;6.350;2022-11-20T10:56:24;96505.63;;;15.25;45.51
64610;BME280;51019;46.090;6.350;2022-11-20T10:59:08;96500.78;;;15.76;43.40
64610;BME280;51019;46.090;6.350;2022-11-20T11:01:42;96503.34;;;16.82;40.48
64610;BME280;51019;46.090;6.350;2022-11-20T11:04:23;96497.34;;;17.03;40.90
64610;BME280;51019;46.090;6.350;2022-11-20T11:06:57;96498.66;;;15.94;42.73
64610;BME280;51019;46.090;6.350;2022-11-20T11:09:34;96463.63;;;16.15;41.93
64610;BME280;51019;46.090;6.350;2022-11-20T11:12:07;96482.34;;;17.10;40.56
64610;BME280;51019;46.090;6.350;2022-11-20T11:14:45;96471.44;;;14.54;44.90
64610;BME280;51019;46.090;6.350;2022-11-20T11:17:27;96465.84;;;13.76;46.85
64610;BME280;51019;46.090;6.350;2022-11-20T11:20:04;96471.66;;;15.22;45.28
64610;BME280;51019;46.090;6.350;2022-11-20T11:22:34;96472.91;;;13.92;46.71
64610;BME280;51019;46.090;6.350;2022-11-20T11:25:19;96464.53;;;13.88;48.42
64610;BME280;51019;46.090;6.350;2022-11-20T11:27:47;96450.66;;;15.60;44.61
64610;BME280;51019;46.090;6.350;2022-11-20T11:30:20;96460.94;;;15.47;45.88
64610;BME280;51019;46.090;6.350;2022-11-20T11:32:47;96417.59;;;12.17;53.41
64610;BME280;51019;46.090;6.350;2022-11-20T11:35:24;96445.94;;;11.34;55.95
64610;BME280;51019;46.090;6.350;2022-11-20T11:38:00;96423.97;;;11.53;54.66
64610;BME280;51019;46.090;6.350;2022-11-20T11:40:31;96424.31;;;15.21;46.66
64610;BME280;51019;46.090;6.350;2022-11-20T11:43:05;96418.28;;;16.56;43.26
64610;BME280;51019;46.090;6.350;2022-11-20T11:45:55;96413.50;;;15.08;43.79
64610;BME280;51019;46.090;6.350;2022-11-20T11:48:21;96405.25;;;15.65;42.56
64610;BME280;51019;46.090;6.350;2022-11-20T11:50:50;96402.84;;;15.92;44.70
64610;BME280;51019;46.090;6.350;2022-11-20T11:53:18;96378.44;;;15.22;42.83
64610;BME280;51019;46.090;6.350;2022-11-20T11:55:50;96382.66;;;14.69;43.63
64610;BME280;51019;46.090;6.350;2022-11-20T11:58:32;96363.28;;;15.84;42.50
64610;BME280;51019;46.090;6.350;2022-11-20T12:01:20;96363.94;;;15.86;40.42
64610;BME280;51019;46.090;6.350;2022-11-20T12:03:57;96271.56;;;16.94;38.20
64610;BME280;51019;46.090;6.350;2022-11-20T12:06:26;96362.22;;;15.02;40.84
64610;BME280;51019;46.090;6.350;2022-11-20T12:09:01;96332.50;;;15.91;39.97
64610;BME280;51019;46.090;6.350;2022-11-20T12:11:33;96347.66;;;15.60;43.96
64610;BME280;51019;46.090;6.350;2022-11-20T12:14:14;96338.03;;;15.21;41.76
64610;BME280;51019;46.090;6.350;2022-11-20T12:16:46;96298.16;;;14.15;43.09
64610;BME280;51019;46.090;6.350;2022-11-20T12:19:14;96343.31;;;15.44;40.67
64610;BME280;51019;46.090;6.350;2022-11-20T12:21:51;96283.88;;;15.03;39.53
64610;BME280;51019;46.090;6.350;2022-11-20T12:24:37;96343.44;;;16.91;37.68
64610;BME280;51019;46.090;6.350;2022-11-20T12:30:08;96342.97;;;18.91;33.92
64610;BME280;51019;46.090;6.350;2022-11-20T12:35:54;96331.56;;;17.45;34.21
64610;BME280;51019;46.090;6.350;2022-11-20T12:38:37;96326.97;;;16.45;33.96
64610;BME280;51019;46.090;6.350;2022-11-20T12:41:14;96281.13;;;16.59;32.21
64610;BME280;51019;46.090;6.350;2022-11-20T12:44:15;96326.91;;;17.25;32.62
64610;BME280;51019;46.090;6.350;2022-11-20T12:47:13;96326.25;;;17.23;31.23
64610;BME280;51019;46.090;6.350;2022-11-20T12:49:51;96318.19;;;17.74;32.50
64610;BME280;51019;46.090;6.350;2022-11-20T12:52:37;96310.59;;;16.71;33.68
64610;BME280;51019;46.090;6.350;2022-11-20T12:55:16;96293.66;;;15.92;34.83
64610;BME280;51019;46.090;6.350;2022-11-20T12:57:52;96178.03;;;13.90;37.13
64610;BME280;51019;46.090;6.350;2022-11-20T13:03:38;96301.28;;;16.60;33.74
64610;BME280;51019;46.090;6.350;2022-11-20T13:06:13;96188.44;;;12.96;40.25
64610;BME280;51019;46.090;6.350;2022-11-20T13:08:50;96188.59;;;12.70;39.61
64610;BME280;51019;46.090;6.350;2022-11-20T13:11:25;96316.41;;;12.55;42.36
64610;BME280;51019;46.090;6.350;2022-11-20T13:14:07;96329.56;;;12.13;44.83
64610;BME280;51019;46.090;6.350;2022-11-20T13:16:44;96306.13;;;11.68;46.83
64610;BME280;51019;46.090;6.350;2022-11-20T13:19:14;96244.53;;;10.67;47.40
64610;BME280;51019;46.090;6.350;2022-11-20T13:21:47;96277.78;;;10.66;47.87
64610;BME280;51019;46.090;6.350;2022-11-20T13:24:27;96221.78;;;10.04;48.16
64610;BME280;51019;46.090;6.350;2022-11-20T13:27:20;96316.81;;;10.14;47.59
64610;BME280;51019;46.090;6.350;2022-11-20T13:30:02;96316.13;;;10.40;48.60
64610;BME280;51019;46.090;6.350;2022-11-20T13:32:47;96313.22;;;10.43;47.36